Time;durP1;ratioP1;P1;durP2;ratioP2;P2;SDS_P1;SDS_P2;PMS_P1;PMS_P2;Temp;Humidity;BMP_temperature;BMP_pressure;BME280_temperature;BME280_humidity;BME280_pressure;Samples;Min_cycle;Max_cycle;Signal;HPM_P1;HPM_P2
2022/05/08 00:01:44;;;;;;;;;16.33;13.67;;;;;;;;5012447;28;9258;-74
2022/05/08 00:04:11;;;;;;;;;12.67;12.67;;;;;;;;5016854;28;9291;-74
2022/05/08 00:06:39;;;;;;;;;18.00;16.67;;;;;;;;5019101;28;9184;-74
2022/05/08 00:09:06;;;;;;;;;14.00;14.00;;;;;;;;5019011;28;10259;-74
2022/05/08 00:11:33;;;;;;;;;15.67;15.67;;;;;;;;5026570;28;9347;-74
2022/05/08 00:14:01;;;;;;;;;17.33;16.33;;;;;;;;5019162;28;9428;-75
2022/05/08 00:16:28;;;;;;;;;18.50;18.50;;;;;;;;5021939;28;9344;-74
2022/05/08 00:18:57;;;;;;;;;18.25;16.75;;;;;;;;5020484;28;9507;-74
2022/05/08 00:21:24;;;;;;;;;22.75;17.25;;;;;;;;5012490;28;9492;-74
2022/05/08 00:23:51;;;;;;;;;17.00;17.00;;;;;;;;5019168;28;9532;-73
2022/05/08 00:26:19;;;;;;;;;18.00;18.00;;;;;;;;5013529;28;9530;-74
2022/05/08 00:28:46;;;;;;;;;18.33;18.33;;;;;;;;5020714;28;9600;-74
2022/05/08 00:31:13;;;;;;;;;15.67;15.67;;;;;;;;5016796;28;9374;-74
2022/05/08 00:33:41;;;;;;;;;22.33;20.00;;;;;;;;5018478;28;9363;-74
2022/05/08 00:36:10;;;;;;;;;16.50;14.50;;;;;;;;5017972;28;9502;-74
2022/05/08 00:38:37;;;;;;;;;18.75;17.50;;;;;;;;5018937;28;9578;-74
2022/05/08 00:41:05;;;;;;;;;19.25;19.25;;;;;;;;5020660;28;9502;-74
2022/05/08 00:43:34;;;;;;;;;13.50;12.50;;;;;;;;5001269;28;9524;-75
2022/05/08 00:46:02;;;;;;;;;20.25;20.25;;;;;;;;5021398;28;9606;-76
2022/05/08 00:48:30;;;;;;;;;21.50;19.75;;;;;;;;5014111;28;9630;-76
2022/05/08 00:50:58;;;;;;;;;17.25;17.25;;;;;;;;5022017;28;10669;-74
2022/05/08 00:53:31;;;;;;;;;17.50;15.00;;;;;;;;5012969;28;9594;-74
2022/05/08 00:55:58;;;;;;;;;19.50;17.00;;;;;;;;5014399;28;9799;-74
2022/05/08 00:58:25;;;;;;;;;19.75;18.75;;;;;;;;5018281;28;9941;-75
2022/05/08 01:00:53;;;;;;;;;18.50;17.00;;;;;;;;5015072;28;10405;-74
2022/05/08 01:03:21;;;;;;;;;20.00;16.75;;;;;;;;5013998;28;9795;-73
2022/05/08 01:05:50;;;;;;;;;21.00;19.50;;;;;;;;5016384;28;9732;-73
2022/05/08 01:08:17;;;;;;;;;18.25;16.25;;;;;;;;5014756;28;9777;-75
2022/05/08 01:10:48;;;;;;;;;17.25;16.00;;;;;;;;5021096;28;9913;-73
2022/05/08 01:13:16;;;;;;;;;20.50;18.00;;;;;;;;5021481;28;9969;-74
2022/05/08 01:15:44;;;;;;;;;16.00;14.25;;;;;;;;5011799;28;9980;-75
2022/05/08 01:18:13;;;;;;;;;21.50;18.75;;;;;;;;5015495;28;10080;-75
2022/05/08 01:20:41;;;;;;;;;21.25;18.00;;;;;;;;5019745;28;10014;-74
2022/05/08 01:23:11;;;;;;;;;24.50;19.00;;;;;;;;5021347;28;10130;-78
2022/05/08 01:25:47;;;;;;;;;21.75;19.75;;;;;;;;5011056;28;10104;-77
2022/05/08 01:28:14;;;;;;;;;26.50;25.00;;;;;;;;5013174;28;11122;-75
2022/05/08 01:30:42;;;;;;;;;26.50;25.75;;;;;;;;5001514;28;10278;-77
2022/05/08 01:33:10;;;;;;;;;26.25;26.25;;;;;;;;4995133;28;10387;-77
2022/05/08 01:35:37;;;;;;;;;22.25;22.25;;;;;;;;5018117;28;10391;-75
2022/05/08 01:38:04;;;;;;;;;22.00;22.00;;;;;;;;5013945;28;10128;-75
2022/05/08 01:40:33;;;;;;;;;24.50;22.75;;;;;;;;5013897;28;10354;-77
2022/05/08 01:43:01;;;;;;;;;29.00;29.00;;;;;;;;5017170;28;10355;-78
2022/05/08 01:45:28;;;;;;;;;29.00;29.00;;;;;;;;5024306;28;10445;-75
2022/05/08 01:50:41;;;;;;;;;37.00;29.75;;;;;;;;5018089;28;11239;-77
2022/05/08 01:53:08;;;;;;;;;34.75;31.00;;;;;;;;5019378;28;10424;-76
2022/05/08 01:55:37;;;;;;;;;35.00;34.00;;;;;;;;5004740;28;10518;-76
2022/05/08 01:58:04;;;;;;;;;35.00;32.75;;;;;;;;5025920;28;10552;-77
2022/05/08 02:00:32;;;;;;;;;38.75;35.00;;;;;;;;5026899;28;11386;-74
2022/05/08 02:03:01;;;;;;;;;30.25;30.25;;;;;;;;5026281;28;10628;-77
2022/05/08 02:05:29;;;;;;;;;36.00;33.75;;;;;;;;5023745;28;10549;-73
2022/05/08 02:07:56;;;;;;;;;31.75;30.00;;;;;;;;5017188;28;10617;-75
2022/05/08 02:10:24;;;;;;;;;39.50;34.75;;;;;;;;5011850;28;10469;-75
2022/05/08 02:12:53;;;;;;;;;39.00;36.00;;;;;;;;5019670;28;10526;-74
2022/05/08 02:15:20;;;;;;;;;43.00;36.25;;;;;;;;5029842;28;10636;-75
2022/05/08 02:17:48;;;;;;;;;33.25;33.25;;;;;;;;5022989;28;10531;-75
2022/05/08 02:20:15;;;;;;;;;35.25;33.50;;;;;;;;5022808;28;10400;-75
2022/05/08 02:22:42;;;;;;;;;40.00;37.75;;;;;;;;5016069;28;10611;-75
2022/05/08 02:25:10;;;;;;;;;44.50;37.25;;;;;;;;5023118;28;10522;-74
2022/05/08 02:27:38;;;;;;;;;43.75;38.00;;;;;;;;5022372;28;10592;-74
2022/05/08 02:30:09;;;;;;;;;45.25;38.25;;;;;;;;5015347;28;10619;-77
2022/05/08 02:32:37;;;;;;;;;44.25;35.75;;;;;;;;5034436;28;10563;-74
2022/05/08 02:35:06;;;;;;;;;28.75;27.25;;;;;;;;5018699;28;10635;-75
2022/05/08 02:37:33;;;;;;;;;45.75;37.00;;;;;;;;5020570;28;10690;-74
2022/05/08 02:40:01;;;;;;;;;43.75;39.00;;;;;;;;5021385;28;10592;-75
2022/05/08 02:42:28;;;;;;;;;42.75;35.75;;;;;;;;4993646;28;10456;-75
2022/05/08 02:44:55;;;;;;;;;46.50;39.25;;;;;;;;5020138;28;10686;-74
2022/05/08 02:47:24;;;;;;;;;51.75;41.75;;;;;;;;5021453;28;10641;-76
2022/05/08 02:49:51;;;;;;;;;43.00;37.50;;;;;;;;5021111;28;10666;-73
2022/05/08 02:52:18;;;;;;;;;47.50;41.25;;;;;;;;5024433;28;10557;-74
2022/05/08 02:54:46;;;;;;;;;47.75;41.25;;;;;;;;5021407;28;11376;-75
2022/05/08 03:00:05;;;;;;;;;44.75;37.75;;;;;;;;5019564;28;10654;-76
2022/05/08 03:02:34;;;;;;;;;46.25;40.00;;;;;;;;5023326;28;11369;-75
2022/05/08 03:05:01;;;;;;;;;50.25;42.00;;;;;;;;5015852;28;10779;-77
2022/05/08 03:07:29;;;;;;;;;52.25;41.75;;;;;;;;5019823;28;11032;-74
2022/05/08 03:09:57;;;;;;;;;54.75;44.50;;;;;;;;5024113;28;11541;-76
2022/05/08 03:12:24;;;;;;;;;57.50;45.00;;;;;;;;5021433;28;11101;-74
2022/05/08 03:14:51;;;;;;;;;53.75;46.00;;;;;;;;5022964;28;10872;-76
2022/05/08 03:17:18;;;;;;;;;51.00;43.00;;;;;;;;5019891;28;10959;-74
2022/05/08 03:19:47;;;;;;;;;57.00;46.00;;;;;;;;5021374;28;10933;-74
2022/05/08 03:22:15;;;;;;;;;49.00;42.50;;;;;;;;5013367;28;10920;-75
2022/05/08 03:24:42;;;;;;;;;54.50;42.00;;;;;;;;5021730;28;10874;-75
2022/05/08 03:27:10;;;;;;;;;62.25;47.00;;;;;;;;5021855;28;10977;-74
2022/05/08 03:29:37;;;;;;;;;54.00;42.00;;;;;;;;5019985;28;11050;-73
2022/05/08 03:32:06;;;;;;;;;50.00;40.50;;;;;;;;5008937;28;10700;-74
2022/05/08 03:34:33;;;;;;;;;57.50;44.75;;;;;;;;5018319;28;10906;-74
2022/05/08 03:37:02;;;;;;;;;57.00;45.50;;;;;;;;5020820;28;11013;-77
2022/05/08 03:39:29;;;;;;;;;57.00;43.75;;;;;;;;5017153;28;10912;-75
2022/05/08 03:41:56;;;;;;;;;61.00;47.00;;;;;;;;5017287;28;10704;-76
2022/05/08 03:44:23;;;;;;;;;54.75;44.25;;;;;;;;5021034;28;10842;-78
2022/05/08 03:46:50;;;;;;;;;55.75;43.75;;;;;;;;5022972;28;10882;-75
2022/05/08 03:49:18;;;;;;;;;51.50;42.25;;;;;;;;5023003;28;10933;-75
2022/05/08 03:51:45;;;;;;;;;54.00;44.00;;;;;;;;5021347;28;10959;-76
2022/05/08 03:54:13;;;;;;;;;53.75;43.75;;;;;;;;5021112;28;10886;-74
2022/05/08 03:56:41;;;;;;;;;52.50;43.50;;;;;;;;5016324;28;12253;-73
2022/05/08 03:59:09;;;;;;;;;52.50;44.00;;;;;;;;5009962;28;10814;-73
2022/05/08 04:01:36;;;;;;;;;55.00;44.00;;;;;;;;5015118;28;10627;-77
2022/05/08 04:04:03;;;;;;;;;47.50;37.75;;;;;;;;5015248;28;10707;-75
2022/05/08 04:06:31;;;;;;;;;52.25;41.00;;;;;;;;5026366;28;10756;-74
2022/05/08 04:08:59;;;;;;;;;53.00;42.00;;;;;;;;5014365;28;11647;-76
2022/05/08 04:11:29;;;;;;;;;56.50;43.75;;;;;;;;5021263;28;10996;-74
2022/05/08 04:13:57;;;;;;;;;56.50;45.50;;;;;;;;5022310;28;10869;-75
2022/05/08 04:16:26;;;;;;;;;57.00;45.00;;;;;;;;5009590;28;10868;-73
2022/05/08 04:18:53;;;;;;;;;56.25;45.75;;;;;;;;5019021;28;10802;-75
2022/05/08 04:21:20;;;;;;;;;53.25;42.50;;;;;;;;5015633;28;10969;-74
2022/05/08 04:26:34;;;;;;;;;58.00;47.25;;;;;;;;5009841;28;10833;-74
2022/05/08 04:29:02;;;;;;;;;57.00;45.50;;;;;;;;5018130;28;11051;-75
2022/05/08 04:31:29;;;;;;;;;57.75;43.25;;;;;;;;5010804;28;10794;-77
2022/05/08 04:33:56;;;;;;;;;52.00;43.25;;;;;;;;5017471;28;10827;-74
2022/05/08 04:36:24;;;;;;;;;58.25;43.00;;;;;;;;5021796;28;10896;-77
2022/05/08 04:38:51;;;;;;;;;47.75;41.00;;;;;;;;5018409;28;10947;-73
2022/05/08 04:41:19;;;;;;;;;55.00;46.25;;;;;;;;5012617;28;10613;-75
2022/05/08 04:43:48;;;;;;;;;55.25;42.25;;;;;;;;5017025;28;11009;-74
2022/05/08 04:46:15;;;;;;;;;45.75;38.25;;;;;;;;5020151;28;10946;-75
2022/05/08 04:48:43;;;;;;;;;57.00;43.75;;;;;;;;5002288;28;10707;-75
2022/05/08 04:51:10;;;;;;;;;54.25;45.00;;;;;;;;5017650;28;11514;-76
2022/05/08 04:53:38;;;;;;;;;54.50;45.75;;;;;;;;5018489;28;10740;-74
2022/05/08 04:56:05;;;;;;;;;56.25;45.25;;;;;;;;5014173;28;10461;-74
2022/05/08 04:58:33;;;;;;;;;47.50;39.75;;;;;;;;5020594;28;10819;-76
2022/05/08 05:01:01;;;;;;;;;59.00;44.50;;;;;;;;5013034;28;10643;-75
2022/05/08 05:03:29;;;;;;;;;57.50;46.00;;;;;;;;5014724;28;10802;-75
2022/05/08 05:05:56;;;;;;;;;58.00;45.00;;;;;;;;5019160;28;10625;-73
2022/05/08 05:08:23;;;;;;;;;56.50;45.50;;;;;;;;5017189;28;10624;-73
2022/05/08 05:10:50;;;;;;;;;60.75;47.00;;;;;;;;5020893;28;10812;-73
2022/05/08 05:13:17;;;;;;;;;57.25;44.75;;;;;;;;5018814;28;10757;-74
2022/05/08 05:15:45;;;;;;;;;55.00;44.00;;;;;;;;5014998;28;10787;-74
2022/05/08 05:18:14;;;;;;;;;51.00;38.00;;;;;;;;5017966;28;10834;-75
2022/05/08 05:20:41;;;;;;;;;52.00;44.00;;;;;;;;5017564;28;10473;-76
2022/05/08 05:23:09;;;;;;;;;54.00;44.00;;;;;;;;5018998;28;10632;-74
2022/05/08 05:25:36;;;;;;;;;57.00;43.00;;;;;;;;5022859;28;11604;-75
2022/05/08 05:28:03;;;;;;;;;47.25;39.25;;;;;;;;5023584;28;10684;-73
2022/05/08 05:30:30;;;;;;;;;49.50;39.25;;;;;;;;5022289;28;10483;-74
2022/05/08 05:32:58;;;;;;;;;51.50;42.50;;;;;;;;5018033;28;10687;-76
2022/05/08 05:35:26;;;;;;;;;52.00;42.00;;;;;;;;5023510;28;10390;-77
2022/05/08 05:37:54;;;;;;;;;55.00;45.00;;;;;;;;5011874;28;10457;-76
2022/05/08 05:40:21;;;;;;;;;57.25;46.25;;;;;;;;5017809;28;10554;-74
2022/05/08 05:42:48;;;;;;;;;48.50;39.50;;;;;;;;4999624;28;10711;-77
2022/05/08 05:45:16;;;;;;;;;56.25;43.25;;;;;;;;5014149;28;11313;-76
2022/05/08 05:47:52;;;;;;;;;47.25;40.50;;;;;;;;5024468;28;10481;-81
2022/05/08 05:50:21;;;;;;;;;51.75;41.00;;;;;;;;5015212;28;10609;-76
2022/05/08 05:52:49;;;;;;;;;53.00;43.25;;;;;;;;5023214;28;10607;-78
2022/05/08 05:55:17;;;;;;;;;52.00;42.25;;;;;;;;5007222;28;10617;-76
2022/05/08 05:57:45;;;;;;;;;57.25;46.00;;;;;;;;5017508;28;10608;-77
2022/05/08 06:00:15;;;;;;;;;50.75;41.00;;;;;;;;5024780;28;10901;-76
2022/05/08 06:02:45;;;;;;;;;49.50;41.75;;;;;;;;5020475;28;10693;-77
2022/05/08 06:05:14;;;;;;;;;50.00;42.75;;;;;;;;5025322;28;11349;-74
2022/05/08 06:07:42;;;;;;;;;54.75;45.25;;;;;;;;5008088;28;10615;-77
2022/05/08 06:10:14;;;;;;;;;58.75;46.75;;;;;;;;5016238;28;10755;-75
2022/05/08 06:12:41;;;;;;;;;58.25;47.25;;;;;;;;5018703;28;10776;-76
2022/05/08 06:15:10;;;;;;;;;62.25;46.00;;;;;;;;5013387;28;10855;-76
2022/05/08 06:17:37;;;;;;;;;56.50;45.50;;;;;;;;5021652;28;10871;-77
2022/05/08 06:20:05;;;;;;;;;44.00;40.00;;;;;;;;4998043;28;10787;-74
2022/05/08 06:22:34;;;;;;;;;56.75;44.00;;;;;;;;5024059;28;10601;-77
2022/05/08 06:25:01;;;;;;;;;65.00;50.00;;;;;;;;5023131;28;10783;-73
2022/05/08 06:27:30;;;;;;;;;52.75;43.75;;;;;;;;5021987;28;10905;-73
2022/05/08 06:29:59;;;;;;;;;57.25;47.50;;;;;;;;5025381;28;10895;-73
2022/05/08 06:32:26;;;;;;;;;57.50;47.00;;;;;;;;5021058;28;10993;-74
2022/05/08 06:34:53;;;;;;;;;55.75;45.25;;;;;;;;5020374;28;11462;-76
2022/05/08 06:37:20;;;;;;;;;48.50;41.00;;;;;;;;5021620;28;10910;-74
2022/05/08 06:39:47;;;;;;;;;56.25;46.75;;;;;;;;5023085;28;10871;-79
2022/05/08 06:42:15;;;;;;;;;51.50;43.75;;;;;;;;5019090;28;10813;-78
2022/05/08 06:44:44;;;;;;;;;55.50;44.00;;;;;;;;5004528;28;10594;-75
2022/05/08 06:47:11;;;;;;;;;54.00;44.50;;;;;;;;5018010;28;10702;-76
2022/05/08 06:49:38;;;;;;;;;49.50;41.25;;;;;;;;5019916;28;10674;-78
2022/05/08 06:52:06;;;;;;;;;48.00;41.75;;;;;;;;5024515;28;11142;-77
2022/05/08 06:54:33;;;;;;;;;50.50;42.25;;;;;;;;5022499;28;10709;-75
2022/05/08 06:57:00;;;;;;;;;59.00;42.50;;;;;;;;5023981;28;10389;-79
2022/05/08 07:02:15;;;;;;;;;49.25;42.25;;;;;;;;5025567;28;10372;-77
2022/05/08 07:04:42;;;;;;;;;56.50;44.75;;;;;;;;5025571;28;10121;-74
2022/05/08 07:07:10;;;;;;;;;53.00;45.25;;;;;;;;5021449;28;10333;-80
2022/05/08 07:09:37;;;;;;;;;47.50;40.25;;;;;;;;5022048;28;10258;-76
2022/05/08 07:12:05;;;;;;;;;52.75;43.00;;;;;;;;5023399;28;10803;-78
2022/05/08 07:14:32;;;;;;;;;41.25;34.75;;;;;;;;5006674;28;10147;-75
2022/05/08 07:17:00;;;;;;;;;49.00;41.50;;;;;;;;5023724;28;9978;-76
2022/05/08 07:19:29;;;;;;;;;49.75;40.25;;;;;;;;5022418;28;10151;-80
2022/05/08 07:21:57;;;;;;;;;46.75;38.50;;;;;;;;5006782;28;10173;-76
2022/05/08 07:24:24;;;;;;;;;53.25;43.00;;;;;;;;5005442;28;9894;-82
2022/05/08 07:26:51;;;;;;;;;55.25;44.50;;;;;;;;5015747;28;10958;-75
2022/05/08 07:29:18;;;;;;;;;53.00;43.75;;;;;;;;4996014;28;10104;-77
2022/05/08 07:31:45;;;;;;;;;54.50;45.00;;;;;;;;5017716;28;10157;-78
2022/05/08 07:36:59;;;;;;;;;55.50;45.00;;;;;;;;5020467;28;10833;-79
2022/05/08 07:39:26;;;;;;;;;54.25;40.00;;;;;;;;5019386;28;9974;-78
2022/05/08 07:41:54;;;;;;;;;51.50;42.75;;;;;;;;5016289;28;10167;-80
2022/05/08 07:44:21;;;;;;;;;55.50;45.25;;;;;;;;5006022;28;10060;-76
2022/05/08 07:46:49;;;;;;;;;58.50;46.50;;;;;;;;5020912;28;10249;-75
2022/05/08 07:49:17;;;;;;;;;49.00;40.00;;;;;;;;5018331;28;10101;-81
2022/05/08 07:51:44;;;;;;;;;42.50;34.75;;;;;;;;5021700;28;9722;-79
2022/05/08 07:54:13;;;;;;;;;58.25;45.50;;;;;;;;5003822;28;10722;-77
2022/05/08 07:56:40;;;;;;;;;52.75;44.50;;;;;;;;5022082;28;10052;-74
2022/05/08 07:59:08;;;;;;;;;55.25;45.25;;;;;;;;5020471;28;9913;-73
2022/05/08 08:01:35;;;;;;;;;52.50;43.75;;;;;;;;5020311;28;9883;-75
2022/05/08 08:04:04;;;;;;;;;54.75;45.75;;;;;;;;5019167;28;9735;-75
2022/05/08 08:06:32;;;;;;;;;55.75;47.25;;;;;;;;5021825;28;11209;-74
2022/05/08 08:09:00;;;;;;;;;50.75;42.50;;;;;;;;5017246;28;9966;-75
2022/05/08 08:11:29;;;;;;;;;52.50;42.75;;;;;;;;5021591;28;10056;-76
2022/05/08 08:13:56;;;;;;;;;58.75;47.75;;;;;;;;5021776;28;9948;-75
2022/05/08 08:16:24;;;;;;;;;59.00;46.75;;;;;;;;5018292;28;10065;-76
2022/05/08 08:18:54;;;;;;;;;55.25;45.50;;;;;;;;5003472;28;10071;-76
2022/05/08 08:21:21;;;;;;;;;57.75;47.50;;;;;;;;5003681;28;10135;-79
2022/05/08 08:23:48;;;;;;;;;59.25;47.00;;;;;;;;5000835;28;9955;-75
2022/05/08 08:26:15;;;;;;;;;54.75;42.75;;;;;;;;5004014;28;9747;-81
2022/05/08 08:28:44;;;;;;;;;52.75;43.25;;;;;;;;5006197;28;9824;-77
2022/05/08 08:31:13;;;;;;;;;57.50;46.00;;;;;;;;5014274;28;9745;-83
2022/05/08 08:33:42;;;;;;;;;57.00;47.00;;;;;;;;5016412;28;9751;-83
2022/05/08 08:36:10;;;;;;;;;57.50;47.50;;;;;;;;5018566;28;9790;-84
2022/05/08 08:38:38;;;;;;;;;54.25;43.25;;;;;;;;5015139;28;10608;-83
2022/05/08 08:41:07;;;;;;;;;53.50;44.00;;;;;;;;5024003;28;9774;-84
2022/05/08 08:49:10;;;;;;;;;60.00;44.25;;;;;;;;5008726;28;9793;-82
2022/05/08 08:51:38;;;;;;;;;58.00;46.25;;;;;;;;5011922;28;10593;-80
2022/05/08 08:54:05;;;;;;;;;54.75;44.00;;;;;;;;4983671;28;9852;-77
2022/05/08 08:56:33;;;;;;;;;53.00;42.25;;;;;;;;5013658;28;9502;-78
2022/05/08 08:59:00;;;;;;;;;56.00;44.75;;;;;;;;5012644;28;9590;-77
2022/05/08 09:01:32;;;;;;;;;55.50;43.75;;;;;;;;5017013;28;9609;-78
2022/05/08 09:04:00;;;;;;;;;53.25;43.75;;;;;;;;5020111;28;10451;-79
2022/05/08 09:06:27;;;;;;;;;53.75;45.00;;;;;;;;5027747;28;9616;-79
2022/05/08 09:08:54;;;;;;;;;39.67;35.00;;;;;;;;5020286;28;10221;-76
2022/05/08 09:11:33;;;;;;;;;46.75;39.50;;;;;;;;4998480;28;9327;-77
2022/05/08 09:14:01;;;;;;;;;56.00;44.00;;;;;;;;5015744;28;9643;-78
2022/05/08 09:16:29;;;;;;;;;60.67;48.00;;;;;;;;5014647;28;9484;-78
2022/05/08 09:18:57;;;;;;;;;44.67;38.33;;;;;;;;5001173;28;9443;-82
2022/05/08 09:24:10;;;;;;;;;51.00;43.33;;;;;;;;5016495;28;9264;-78
2022/05/08 09:26:38;;;;;;;;;50.00;40.00;;;;;;;;5014903;28;9276;-79
2022/05/08 09:29:05;;;;;;;;;46.00;39.00;;;;;;;;5017236;28;9226;-80
2022/05/08 09:31:41;;;;;;;;;49.00;39.00;;;;;;;;5011240;28;9747;-79
2022/05/08 09:34:08;;;;;;;;;54.00;44.00;;;;;;;;4993266;28;9081;-78
2022/05/08 09:36:36;;;;;;;;;40.75;36.25;;;;;;;;4998903;28;9201;-78
2022/05/08 09:39:05;;;;;;;;;46.00;39.67;;;;;;;;5015923;28;8901;-77
2022/05/08 09:41:35;;;;;;;;;44.33;39.00;;;;;;;;5009368;28;9003;-81
2022/05/08 09:44:10;;;;;;;;;43.00;37.50;;;;;;;;5018459;28;9055;-82
2022/05/08 09:46:39;;;;;;;;;50.25;42.75;;;;;;;;5019194;28;8983;-76
2022/05/08 09:49:07;;;;;;;;;48.50;39.00;;;;;;;;5016450;28;8885;-81
2022/05/08 09:51:34;;;;;;;;;48.50;40.75;;;;;;;;5015784;28;8880;-76
2022/05/08 09:54:03;;;;;;;;;47.50;38.00;;;;;;;;5016218;28;8872;-84
2022/05/08 09:56:31;;;;;;;;;48.50;39.75;;;;;;;;5019496;28;8853;-83
2022/05/08 09:58:58;;;;;;;;;41.50;36.25;;;;;;;;5017759;28;9800;-80
2022/05/08 10:01:26;;;;;;;;;78.25;66.75;;;;;;;;5011604;28;8861;-83
2022/05/08 10:03:56;;;;;;;;;274.60;246.20;;;;;;;;5017825;28;10200;-84
2022/05/08 10:06:24;;;;;;;;;157.20;148.80;;;;;;;;5018310;28;9452;-82
2022/05/08 10:13:53;;;;;;;;;1867.67;1351.50;;;;;;;;5015069;28;8872;-84
2022/05/08 10:14:30;;;;;;;;;335.60;314.60;;;;;;;;5003629;28;8829;-77
2022/05/08 10:17:04;;;;;;;;;48.33;41.33;;;;;;;;5004429;28;9686;-84
2022/05/08 10:19:45;;;;;;;;;55.00;44.75;;;;;;;;5016962;28;10061;-87
2022/05/08 10:22:17;;;;;;;;;55.00;46.00;;;;;;;;5022261;28;8849;-87
2022/05/08 10:24:51;;;;;;;;;43.25;37.75;;;;;;;;5022076;28;9657;-85
2022/05/08 10:27:21;;;;;;;;;38.25;34.50;;;;;;;;5019099;28;8877;-85
2022/05/08 10:30:34;;;;;;;;;48.75;40.00;;;;;;;;5020551;28;8861;-81
2022/05/08 10:33:02;;;;;;;;;40.75;36.00;;;;;;;;5021513;28;8809;-82
2022/05/08 10:35:32;;;;;;;;;37.75;33.50;;;;;;;;5018060;28;8848;-83
2022/05/08 10:38:24;;;;;;;;;38.25;32.50;;;;;;;;5018735;28;8966;-79
2022/05/08 10:40:55;;;;;;;;;37.75;30.50;;;;;;;;5013644;28;8957;-78
2022/05/08 10:43:32;;;;;;;;;41.50;35.00;;;;;;;;4995651;28;9011;-81
2022/05/08 10:46:24;;;;;;;;;38.50;32.50;;;;;;;;5020097;28;9011;-82
2022/05/08 10:48:54;;;;;;;;;36.00;32.00;;;;;;;;5020233;28;8877;-82
2022/05/08 10:51:23;;;;;;;;;34.50;30.25;;;;;;;;5003444;28;9781;-82
2022/05/08 10:53:51;;;;;;;;;35.50;31.75;;;;;;;;5019472;28;9650;-79
2022/05/08 10:56:18;;;;;;;;;34.25;30.00;;;;;;;;5018907;28;8891;-85
2022/05/08 10:58:55;;;;;;;;;37.75;32.75;;;;;;;;5023161;28;8869;-86
2022/05/08 11:01:24;;;;;;;;;32.75;31.00;;;;;;;;5016263;28;8909;-83
2022/05/08 11:03:51;;;;;;;;;36.25;32.25;;;;;;;;5023042;28;8869;-84
2022/05/08 11:06:28;;;;;;;;;36.25;33.25;;;;;;;;5011577;28;8873;-79
2022/05/08 11:09:01;;;;;;;;;38.00;34.50;;;;;;;;5001093;28;8901;-85
2022/05/08 11:11:29;;;;;;;;;40.50;32.50;;;;;;;;5020113;28;8876;-84
2022/05/08 11:13:56;;;;;;;;;34.75;33.00;;;;;;;;5020059;28;8938;-88
2022/05/08 11:16:36;;;;;;;;;34.50;32.25;;;;;;;;5018181;28;8968;-82
2022/05/08 11:19:04;;;;;;;;;34.75;32.25;;;;;;;;5017569;28;8922;-83
2022/05/08 11:21:33;;;;;;;;;38.00;32.50;;;;;;;;5017356;28;8886;-76
2022/05/08 11:24:02;;;;;;;;;34.75;32.50;;;;;;;;5020812;28;8865;-78
2022/05/08 11:26:31;;;;;;;;;34.75;32.00;;;;;;;;5018642;28;8872;-82
2022/05/08 11:29:00;;;;;;;;;40.00;35.20;;;;;;;;5017784;28;9638;-74
2022/05/08 11:31:29;;;;;;;;;32.60;31.60;;;;;;;;5017053;28;8887;-78
2022/05/08 11:36:44;;;;;;;;;37.40;32.00;;;;;;;;5016257;28;8987;-74
2022/05/08 11:39:13;;;;;;;;;31.40;29.80;;;;;;;;5015765;28;8890;-84
2022/05/08 11:41:44;;;;;;;;;37.40;31.20;;;;;;;;5019019;28;8872;-73
2022/05/08 11:44:23;;;;;;;;;30.80;29.80;;;;;;;;5016567;28;8868;-74
2022/05/08 11:46:54;;;;;;;;;23.80;22.60;;;;;;;;5019531;28;9018;-74
2022/05/08 11:49:22;;;;;;;;;37.00;32.20;;;;;;;;5019819;28;8899;-73
2022/05/08 11:51:52;;;;;;;;;34.60;29.60;;;;;;;;5017651;28;10165;-75
2022/05/08 11:54:30;;;;;;;;;32.40;29.80;;;;;;;;5018050;28;8894;-76
2022/05/08 11:57:17;;;;;;;;;28.00;26.20;;;;;;;;5019117;28;8969;-76
2022/05/08 11:59:45;;;;;;;;;32.00;29.00;;;;;;;;5016603;28;8860;-76
2022/05/08 12:02:13;;;;;;;;;27.40;26.20;;;;;;;;5015194;28;9705;-75
2022/05/08 12:04:43;;;;;;;;;26.40;26.40;;;;;;;;5017440;28;8837;-77
2022/05/08 12:07:14;;;;;;;;;25.60;23.80;;;;;;;;5015966;28;8881;-79
2022/05/08 12:09:52;;;;;;;;;29.80;29.80;;;;;;;;5017100;28;8923;-80
2022/05/08 12:12:27;;;;;;;;;25.40;24.00;;;;;;;;5017358;28;8891;-80
2022/05/08 12:14:59;;;;;;;;;29.80;24.00;;;;;;;;5015350;28;8946;-85
2022/05/08 12:17:27;;;;;;;;;29.40;24.00;;;;;;;;5016261;28;8935;-77
2022/05/08 12:19:56;;;;;;;;;23.40;23.40;;;;;;;;5016423;28;8926;-76
2022/05/08 12:22:26;;;;;;;;;30.20;27.60;;;;;;;;5017765;28;8979;-76
2022/05/08 12:24:53;;;;;;;;;28.20;23.60;;;;;;;;5014502;28;8888;-83
2022/05/08 12:27:21;;;;;;;;;24.80;24.40;;;;;;;;5014323;28;8886;-79
2022/05/08 12:29:48;;;;;;;;;21.00;20.20;;;;;;;;5019344;28;8884;-79
2022/05/08 12:32:16;;;;;;;;;22.80;22.40;;;;;;;;5018540;28;8815;-83
2022/05/08 12:34:44;;;;;;;;;23.00;23.00;;;;;;;;5011301;28;8925;-78
2022/05/08 12:37:13;;;;;;;;;25.40;22.60;;;;;;;;5018493;28;8904;-79
2022/05/08 12:39:42;;;;;;;;;23.20;22.20;;;;;;;;5014792;28;8871;-80
2022/05/08 12:42:11;;;;;;;;;25.60;21.80;;;;;;;;5018585;28;8930;-78
2022/05/08 12:44:39;;;;;;;;;21.20;21.20;;;;;;;;5016947;28;8881;-76
2022/05/08 12:47:08;;;;;;;;;24.60;22.80;;;;;;;;5012874;28;8999;-77
2022/05/08 12:49:36;;;;;;;;;29.80;26.60;;;;;;;;5009602;28;8953;-76
2022/05/08 12:52:04;;;;;;;;;22.40;21.20;;;;;;;;4993334;28;9902;-77
2022/05/08 12:54:32;;;;;;;;;19.80;18.00;;;;;;;;5014302;28;8897;-77
2022/05/08 12:57:03;;;;;;;;;20.00;18.00;;;;;;;;5019460;28;8856;-83
2022/05/08 12:59:46;;;;;;;;;19.80;19.80;;;;;;;;5015619;28;8898;-75
2022/05/08 13:02:15;;;;;;;;;14.20;13.40;;;;;;;;5020485;28;8817;-79
2022/05/08 13:04:43;;;;;;;;;18.00;16.20;;;;;;;;5016888;28;8994;-81
2022/05/08 13:07:12;;;;;;;;;16.80;16.80;;;;;;;;4997595;28;8885;-79
2022/05/08 13:09:41;;;;;;;;;12.40;12.40;;;;;;;;4995738;28;8860;-80
2022/05/08 13:12:10;;;;;;;;;11.20;11.20;;;;;;;;5019329;28;8849;-79
2022/05/08 13:14:38;;;;;;;;;14.80;14.80;;;;;;;;5014276;28;8913;-77
2022/05/08 13:17:06;;;;;;;;;21.20;16.20;;;;;;;;5015456;28;8880;-80
2022/05/08 13:19:34;;;;;;;;;21.80;20.20;;;;;;;;5019130;28;8905;-78
2022/05/08 13:22:04;;;;;;;;;16.40;14.80;;;;;;;;5019182;28;8883;-79
2022/05/08 13:24:31;;;;;;;;;18.00;16.40;;;;;;;;5020284;28;8897;-80
2022/05/08 13:27:01;;;;;;;;;17.80;17.00;;;;;;;;5016554;28;8852;-78
2022/05/08 13:29:32;;;;;;;;;15.40;15.40;;;;;;;;5021622;28;8931;-80
2022/05/08 13:32:00;;;;;;;;;16.40;16.40;;;;;;;;5020191;28;8793;-78
2022/05/08 13:34:28;;;;;;;;;19.20;19.20;;;;;;;;5010264;28;8868;-83
2022/05/08 13:36:56;;;;;;;;;14.80;13.00;;;;;;;;4994579;28;8867;-80
2022/05/08 13:39:24;;;;;;;;;19.80;18.00;;;;;;;;4995122;28;8876;-78
2022/05/08 13:41:52;;;;;;;;;18.40;15.60;;;;;;;;5014797;28;8879;-78
2022/05/08 13:44:20;;;;;;;;;17.40;14.60;;;;;;;;5003998;28;8860;-78
2022/05/08 13:46:48;;;;;;;;;22.40;19.40;;;;;;;;5021101;28;8880;-76
2022/05/08 13:49:16;;;;;;;;;20.20;16.60;;;;;;;;5022791;28;8857;-81
2022/05/08 13:51:43;;;;;;;;;16.00;16.00;;;;;;;;5017735;28;8876;-80
2022/05/08 13:54:10;;;;;;;;;17.80;14.20;;;;;;;;5019356;28;9680;-77
2022/05/08 13:56:43;;;;;;;;;17.00;17.00;;;;;;;;5021575;28;8902;-80
2022/05/08 13:59:10;;;;;;;;;17.60;16.60;;;;;;;;5018651;28;8864;-78
2022/05/08 14:01:38;;;;;;;;;19.80;19.80;;;;;;;;5018542;28;8817;-79
2022/05/08 14:04:06;;;;;;;;;21.40;17.80;;;;;;;;5020285;28;8885;-78
2022/05/08 14:06:34;;;;;;;;;20.20;18.00;;;;;;;;5022406;28;8857;-81
2022/05/08 14:09:01;;;;;;;;;20.20;18.00;;;;;;;;5019006;28;8873;-79
2022/05/08 14:11:29;;;;;;;;;18.00;16.40;;;;;;;;5019629;28;8902;-78
2022/05/08 14:13:56;;;;;;;;;16.60;16.60;;;;;;;;5017703;28;8875;-75
2022/05/08 14:16:23;;;;;;;;;19.40;16.60;;;;;;;;5019474;28;8871;-83
2022/05/08 14:18:50;;;;;;;;;19.40;18.20;;;;;;;;5012753;28;8898;-86
2022/05/08 14:21:19;;;;;;;;;20.60;19.60;;;;;;;;5024958;28;8896;-84
2022/05/08 14:23:46;;;;;;;;;20.40;17.40;;;;;;;;5010469;28;8866;-84
2022/05/08 14:26:13;;;;;;;;;13.00;13.00;;;;;;;;5018688;28;9631;-84
2022/05/08 14:28:41;;;;;;;;;18.60;18.60;;;;;;;;5021364;28;8983;-90
2022/05/08 14:36:38;;;;;;;;;21.80;19.40;;;;;;;;5019731;28;8852;-90
2022/05/08 14:39:06;;;;;;;;;19.20;17.80;;;;;;;;5020688;28;8868;-78
2022/05/08 14:41:33;;;;;;;;;17.20;17.20;;;;;;;;5004455;28;8930;-86
2022/05/08 14:44:00;;;;;;;;;18.20;17.20;;;;;;;;5017684;28;8873;-84
2022/05/08 14:46:28;;;;;;;;;18.40;17.80;;;;;;;;5017672;28;8892;-81
2022/05/08 14:48:55;;;;;;;;;15.00;14.40;;;;;;;;5015805;28;8966;-79
2022/05/08 14:51:22;;;;;;;;;18.40;18.40;;;;;;;;5018529;28;8884;-87
2022/05/08 14:53:51;;;;;;;;;19.60;17.80;;;;;;;;5018425;28;8880;-84
2022/05/08 14:56:19;;;;;;;;;18.80;18.80;;;;;;;;5014302;28;8856;-83
2022/05/08 14:58:47;;;;;;;;;20.20;18.00;;;;;;;;5022189;28;8853;-76
2022/05/08 15:01:15;;;;;;;;;18.40;16.80;;;;;;;;5017910;28;8829;-85
2022/05/08 15:03:42;;;;;;;;;19.00;19.00;;;;;;;;5023395;28;8856;-83
2022/05/08 15:06:12;;;;;;;;;19.00;15.80;;;;;;;;5001325;28;8878;-81